createdAt,value
2017-04-26T00:00:00.752Z,60
2017-04-26T00:01:02.576Z,60
2017-04-26T00:02:04.578Z,60.1
2017-04-26T00:03:06.384Z,60
2017-04-26T00:04:08.181Z,60
2017-04-26T00:05:09.976Z,60
2017-04-26T00:06:11.772Z,60
2017-04-26T00:07:13.563Z,60
2017-04-26T00:08:15.654Z,60
2017-04-26T00:09:17.494Z,60.1
2017-04-26T00:10:19.329Z,60.1
2017-04-26T00:11:21.123Z,60
2017-04-26T00:12:22.917Z,60
2017-04-26T00:13:25.095Z,60
2017-04-26T00:14:27.842Z,60.1
2017-04-26T00:15:29.694Z,60.1
2017-04-26T00:16:31.689Z,60.1
2017-04-26T00:17:33.500Z,60.1
2017-04-26T00:18:35.306Z,60.1
2017-04-26T00:19:37.099Z,60.1
2017-04-26T00:20:38.894Z,60.2
2017-04-26T00:21:41.045Z,60.2
2017-04-26T00:22:42.847Z,60.1
2017-04-26T00:23:44.664Z,60.1
2017-04-26T00:24:46.466Z,60.1
2017-04-26T00:25:48.266Z,60.1
2017-04-26T00:26:50.057Z,60.1
2017-04-26T00:27:51.862Z,60.1
2017-04-26T00:28:53.678Z,60.2
2017-04-26T00:29:55.475Z,60.1
2017-04-26T00:30:57.640Z,60.1
2017-04-26T00:31:59.439Z,60.1
2017-04-26T00:33:01.594Z,60.2
2017-04-26T00:34:03.402Z,60.3
2017-04-26T00:35:05.220Z,60.2
2017-04-26T00:36:07.388Z,60.3
2017-04-26T00:37:09.208Z,60.3
2017-04-26T00:38:11.673Z,60.4
2017-04-26T00:39:13.808Z,60.3
2017-04-26T00:40:15.603Z,60.3
2017-04-26T00:41:17.740Z,60.4
2017-04-26T00:42:19.556Z,60.2
2017-04-26T00:43:21.367Z,60.3
2017-04-26T00:44:23.182Z,60.4
2017-04-26T00:45:25.116Z,60.4
2017-04-26T00:46:26.939Z,60.5
2017-04-26T00:47:28.735Z,60.4
2017-04-26T00:48:30.533Z,60.6
2017-04-26T00:49:32.345Z,60.5
2017-04-26T00:50:34.138Z,60.4
2017-04-26T00:51:35.933Z,60.4
2017-04-26T00:52:37.733Z,60.6
2017-04-26T00:53:39.884Z,60.5
2017-04-26T00:54:41.694Z,60.6
2017-04-26T00:55:43.492Z,60.5
2017-04-26T00:56:45.299Z,60.5
2017-04-26T00:57:47.107Z,60.5
2017-04-26T00:58:48.898Z,60.5
2017-04-26T00:59:50.696Z,60.5
2017-04-26T01:00:52.492Z,60.5
2017-04-26T01:01:54.290Z,60.5
2017-04-26T01:02:56.083Z,60.5
2017-04-26T01:03:57.879Z,60.5
2017-04-26T01:04:59.676Z,60.5
2017-04-26T01:06:01.468Z,60.6
2017-04-26T01:07:03.269Z,60.6
2017-04-26T01:08:05.347Z,60.6
2017-04-26T01:09:07.337Z,60.5
2017-04-26T01:10:09.338Z,60.6
2017-04-26T01:11:11.470Z,60.5
2017-04-26T01:12:13.324Z,60.5
2017-04-26T01:13:15.322Z,60.5
2017-04-26T01:14:17.516Z,60.5
2017-04-26T01:15:19.774Z,60.5
2017-04-26T01:16:21.568Z,60.5
2017-04-26T01:17:23.365Z,60.5
2017-04-26T01:18:25.166Z,60.5
2017-04-26T01:19:26.962Z,60.5
2017-04-26T01:20:28.757Z,60.5
2017-04-26T01:21:30.554Z,60.6
2017-04-26T01:22:32.378Z,60.5
2017-04-26T01:23:34.170Z,60.6
2017-04-26T01:24:35.962Z,60.7
2017-04-26T01:25:37.763Z,60.6
2017-04-26T01:26:39.555Z,60.7
2017-04-26T01:27:41.349Z,60.5
2017-04-26T01:28:43.172Z,60.5
2017-04-26T01:29:45.304Z,60.6
2017-04-26T01:30:47.108Z,60.6
2017-04-26T01:31:48.902Z,60.6
2017-04-26T01:32:50.718Z,60.6
2017-04-26T01:33:52.512Z,60.6
2017-04-26T01:34:54.310Z,60.5
2017-04-26T01:35:56.458Z,60.5
2017-04-26T01:36:58.281Z,60.6
2017-04-26T01:38:00.077Z,60.6
2017-04-26T01:39:01.888Z,60.7
2017-04-26T01:40:04.017Z,60.7
2017-04-26T01:41:06.149Z,60.7
2017-04-26T01:42:07.938Z,60.7
2017-04-26T01:43:09.764Z,60.7
2017-04-26T01:44:11.896Z,60.8
2017-04-26T01:45:13.690Z,60.8
2017-04-26T01:46:15.484Z,60.9
2017-04-26T01:47:17.276Z,60.9
2017-04-26T01:48:19.074Z,61
2017-04-26T01:49:20.872Z,61
2017-04-26T01:50:23.036Z,61
2017-04-26T01:51:24.829Z,61.1
2017-04-26T01:52:26.624Z,61.1
2017-04-26T01:53:28.754Z,61.1
2017-04-26T01:54:30.557Z,60.9
2017-04-26T01:55:32.344Z,61
2017-04-26T01:56:34.148Z,60.9
2017-04-26T01:57:36.617Z,61
2017-04-26T01:58:38.416Z,61
2017-04-26T01:59:40.208Z,61
2017-04-26T02:00:42.002Z,61.1
2017-04-26T02:01:43.803Z,61.1
2017-04-26T02:02:45.596Z,61
2017-04-26T02:03:47.724Z,61.1
2017-04-26T02:04:49.523Z,61
2017-04-26T02:05:51.319Z,61.1
2017-04-26T02:06:53.109Z,61.1
2017-04-26T02:07:54.906Z,61.1
2017-04-26T02:08:56.693Z,61.1
2017-04-26T02:09:58.826Z,61.1
2017-04-26T02:11:00.973Z,61.1
2017-04-26T02:12:03.107Z,61.1
2017-04-26T02:13:04.927Z,61.1
2017-04-26T02:14:06.723Z,61.1
2017-04-26T02:15:08.517Z,61.1
2017-04-26T02:16:10.310Z,61.1
2017-04-26T02:17:12.106Z,61.1
2017-04-26T02:18:13.906Z,61.1
2017-04-26T02:19:15.703Z,61.1
2017-04-26T02:20:17.840Z,61.3
2017-04-26T02:21:19.974Z,61.2
2017-04-26T02:22:21.764Z,61.2
2017-04-26T02:23:23.911Z,61.2
2017-04-26T02:24:25.705Z,61.2
2017-04-26T02:25:27.835Z,61.2
2017-04-26T02:26:29.631Z,61.1
2017-04-26T02:27:31.780Z,61.1
2017-04-26T02:28:33.570Z,61.1
2017-04-26T02:29:35.367Z,61.1
2017-04-26T02:30:37.495Z,61.1
2017-04-26T02:31:39.289Z,61.1
2017-04-26T02:32:41.082Z,61
2017-04-26T02:33:42.886Z,61
2017-04-26T02:34:45.365Z,61.1
2017-04-26T02:35:47.162Z,61.1
2017-04-26T02:36:48.960Z,61.1
2017-04-26T02:37:50.753Z,61.1
2017-04-26T02:38:52.549Z,61.1
2017-04-26T02:39:54.690Z,61.1
2017-04-26T02:40:56.481Z,61.1
2017-04-26T02:41:58.279Z,61.1
2017-04-26T02:43:00.090Z,61.2
2017-04-26T02:44:01.886Z,61.1
2017-04-26T02:45:03.676Z,61.1
2017-04-26T02:46:05.473Z,61.1
2017-04-26T02:47:07.262Z,61.1
2017-04-26T02:48:09.057Z,61.1
2017-04-26T02:49:11.194Z,61.1
2017-04-26T02:50:12.986Z,61.1
2017-04-26T02:51:14.786Z,61.1
2017-04-26T02:52:16.581Z,61.2
2017-04-26T02:53:18.376Z,61.2
2017-04-26T02:54:20.170Z,61.2
2017-04-26T02:55:21.959Z,61.2
2017-04-26T02:56:23.750Z,61.3
2017-04-26T02:57:25.543Z,61.3
2017-04-26T02:58:27.337Z,61.4
2017-04-26T02:59:29.803Z,61.4
2017-04-26T03:00:31.594Z,61.4
2017-04-26T03:01:33.392Z,61.4
2017-04-26T03:02:35.185Z,61.4
2017-04-26T03:03:37.317Z,61.4
2017-04-26T03:04:39.121Z,61.4
2017-04-26T03:05:40.910Z,61.4
2017-04-26T03:06:42.706Z,61.5
2017-04-26T03:07:44.497Z,61.5
2017-04-26T03:08:46.295Z,61.5
2017-04-26T03:09:48.085Z,61.5
2017-04-26T03:10:49.879Z,61.6
2017-04-26T03:11:51.675Z,61.5
2017-04-26T03:12:53.466Z,61.6
2017-04-26T03:13:55.260Z,61.6
2017-04-26T03:14:57.395Z,61.5
2017-04-26T03:15:59.190Z,61.5
2017-04-26T03:17:00.988Z,61.5
2017-04-26T03:18:02.777Z,61.5
2017-04-26T03:19:04.911Z,61.5
2017-04-26T03:20:06.709Z,61.5
2017-04-26T03:21:08.499Z,61.5
2017-04-26T03:22:10.630Z,61.6
2017-04-26T03:23:12.428Z,61.5
2017-04-26T03:24:14.223Z,61.5
2017-04-26T03:25:16.369Z,61.4
2017-04-26T03:26:18.160Z,61.5
2017-04-26T03:27:19.959Z,61.4
2017-04-26T03:28:22.091Z,61.5
2017-04-26T03:29:24.578Z,61.5
2017-04-26T03:30:26.375Z,61.5
2017-04-26T03:31:28.500Z,61.6
2017-04-26T03:32:30.296Z,61.6
2017-04-26T03:33:32.088Z,61.6
2017-04-26T03:34:33.890Z,61.6
2017-04-26T03:35:35.682Z,61.6
2017-04-26T03:36:37.472Z,61.6
2017-04-26T03:37:39.270Z,61.6
2017-04-26T03:38:41.064Z,61.6
2017-04-26T03:39:42.860Z,61.7
2017-04-26T03:40:44.657Z,61.7
2017-04-26T03:41:46.459Z,61.6
2017-04-26T03:42:48.601Z,61.6
2017-04-26T03:43:50.396Z,61.6
2017-04-26T03:44:52.185Z,61.6
2017-04-26T03:45:53.983Z,61.6
2017-04-26T03:46:55.772Z,61.6
2017-04-26T03:47:57.908Z,61.6
2017-04-26T03:48:59.702Z,61.7
2017-04-26T03:50:01.498Z,61.7
2017-04-26T03:51:03.290Z,61.7
2017-04-26T03:52:05.088Z,61.7
2017-04-26T03:53:06.881Z,61.7
2017-04-26T03:54:08.670Z,61.7
2017-04-26T03:55:10.461Z,61.7
2017-04-26T03:56:12.259Z,61.7
2017-04-26T03:57:14.399Z,61.7
2017-04-26T03:58:16.195Z,61.8
2017-04-26T03:59:17.983Z,61.8
2017-04-26T04:00:20.114Z,61.8
2017-04-26T04:01:21.907Z,61.8
2017-04-26T04:02:23.703Z,61.8
2017-04-26T04:03:25.493Z,61.8
2017-04-26T04:04:27.292Z,61.8
2017-04-26T04:05:29.086Z,61.9
2017-04-26T04:06:30.885Z,61.7
2017-04-26T04:07:32.678Z,61.8
2017-04-26T04:08:34.477Z,61.8
2017-04-26T04:09:36.273Z,61.8
2017-04-26T04:10:38.069Z,61.8
2017-04-26T04:11:39.858Z,61.9
2017-04-26T04:12:41.655Z,61.8
2017-04-26T04:13:43.448Z,61.9
2017-04-26T04:14:45.590Z,61.9
2017-04-26T04:15:47.387Z,62
2017-04-26T04:16:49.183Z,61.9
2017-04-26T04:17:50.974Z,62
2017-04-26T04:18:53.106Z,62
2017-04-26T04:19:54.904Z,62
2017-04-26T04:20:57.042Z,62
2017-04-26T04:21:58.838Z,62
2017-04-26T04:23:00.638Z,62
2017-04-26T04:24:03.107Z,61.9
2017-04-26T04:25:04.908Z,62
2017-04-26T04:26:06.697Z,62
2017-04-26T04:27:08.493Z,62
2017-04-26T04:28:10.285Z,62
2017-04-26T04:29:12.083Z,62
2017-04-26T04:30:13.875Z,62
2017-04-26T04:31:15.666Z,62
2017-04-26T04:32:17.486Z,62.1
2017-04-26T04:33:19.275Z,62.1
2017-04-26T04:34:21.072Z,62.1
2017-04-26T04:35:23.202Z,62.1
2017-04-26T04:36:25.011Z,62.1
2017-04-26T04:37:26.806Z,62.1
2017-04-26T04:38:28.599Z,62.1
2017-04-26T04:39:30.398Z,62.1
2017-04-26T04:40:32.534Z,62.2
2017-04-26T04:41:34.339Z,62.2
2017-04-26T04:42:36.133Z,62.2
2017-04-26T04:43:38.261Z,62.3
2017-04-26T04:44:40.746Z,62.2
2017-04-26T04:45:42.540Z,62.2
2017-04-26T04:46:44.335Z,62.3
2017-04-26T04:47:46.484Z,62.2
2017-04-26T04:48:48.275Z,62.2
2017-04-26T04:49:50.417Z,62.3
2017-04-26T04:50:52.210Z,62.4
2017-04-26T04:51:54.007Z,62.3
2017-04-26T04:52:55.796Z,62.3
2017-04-26T04:53:57.590Z,62.4
2017-04-26T04:54:59.417Z,62.3
2017-04-26T04:56:01.209Z,62.3
2017-04-26T04:57:03.003Z,62.3
2017-04-26T04:58:05.101Z,62.3
2017-04-26T04:59:06.900Z,62.3
2017-04-26T05:00:08.691Z,62.3
2017-04-26T05:01:10.485Z,62.3
2017-04-26T05:02:12.308Z,62.4
2017-04-26T05:03:14.101Z,62.4
2017-04-26T05:04:15.901Z,62.4
2017-04-26T05:05:17.693Z,62.4
2017-04-26T05:06:19.492Z,62.4
2017-04-26T05:07:21.288Z,62.4
2017-04-26T05:08:23.468Z,62.4
2017-04-26T05:09:25.260Z,62.4
2017-04-26T05:10:27.057Z,62.5
2017-04-26T05:11:28.847Z,62.5
2017-04-26T05:12:30.645Z,62.5
2017-04-26T05:13:32.433Z,62.6
2017-04-26T05:14:34.233Z,62.6
2017-04-26T05:15:36.027Z,62.6
2017-04-26T05:16:37.821Z,62.6
2017-04-26T05:17:39.955Z,62.6
2017-04-26T05:18:42.098Z,62.7
2017-04-26T05:19:44.230Z,62.6
2017-04-26T05:20:46.021Z,62.7
2017-04-26T05:21:47.812Z,62.7
2017-04-26T05:22:49.603Z,62.7
2017-04-26T05:23:51.401Z,62.6
2017-04-26T05:24:53.197Z,62.7
2017-04-26T05:25:55.331Z,62.6
2017-04-26T05:26:57.133Z,62.6
2017-04-26T05:27:58.935Z,62.7
2017-04-26T05:29:01.066Z,62.7
2017-04-26T05:30:02.861Z,62.7
2017-04-26T05:31:05.007Z,62.7
2017-04-26T05:32:07.158Z,62.8
2017-04-26T05:33:09.293Z,62.7
2017-04-26T05:34:11.427Z,62.7
2017-04-26T05:35:13.216Z,62.7
2017-04-26T05:36:15.353Z,62.6
2017-04-26T05:37:17.147Z,62.6
2017-04-26T05:38:18.941Z,62.6
2017-04-26T05:39:21.405Z,62.6
2017-04-26T05:40:23.551Z,62.6
2017-04-26T05:41:25.679Z,62.7
2017-04-26T05:42:27.478Z,62.7
2017-04-26T05:43:29.276Z,62.7
2017-04-26T05:44:31.074Z,62.7
2017-04-26T05:45:32.872Z,62.6
2017-04-26T05:46:34.664Z,62.6
2017-04-26T05:47:36.463Z,62.6
2017-04-26T05:48:38.608Z,62.6
2017-04-26T05:49:40.411Z,62.5
2017-04-26T05:50:42.206Z,62.5
2017-04-26T05:51:43.997Z,62.6
2017-04-26T05:52:45.785Z,62.6
2017-04-26T05:53:47.584Z,62.6
2017-04-26T05:54:49.374Z,62.6
2017-04-26T05:55:51.174Z,62.6
2017-04-26T05:56:52.977Z,62.7
2017-04-26T05:57:54.798Z,62.6
2017-04-26T05:58:56.941Z,62.6
2017-04-26T05:59:58.740Z,62.6
2017-04-26T06:01:00.536Z,62.7
2017-04-26T06:02:02.331Z,62.6
2017-04-26T06:03:04.134Z,62.6
2017-04-26T06:04:05.928Z,62.3
2017-04-26T06:05:07.729Z,62.3
2017-04-26T06:06:09.525Z,62.3
2017-04-26T06:07:11.325Z,62.4
2017-04-26T06:08:13.118Z,62.4
2017-04-26T06:09:14.919Z,62.4
2017-04-26T06:10:16.712Z,62.3
2017-04-26T06:11:18.508Z,62.4
2017-04-26T06:12:20.308Z,62.3
2017-04-26T06:13:22.106Z,62.4
2017-04-26T06:14:23.901Z,62.4
2017-04-26T06:15:25.701Z,62.4
2017-04-26T06:16:27.503Z,62.4
2017-04-26T06:17:29.300Z,62.3
2017-04-26T06:18:31.217Z,62.4
2017-04-26T06:19:33.311Z,62.5
2017-04-26T06:20:35.252Z,62.5
2017-04-26T06:21:37.244Z,62.6
2017-04-26T06:22:39.226Z,62.7
2017-04-26T06:23:41.150Z,62.6
2017-04-26T06:24:43.654Z,62.5
2017-04-26T06:25:45.450Z,62.4
2017-04-26T06:26:47.253Z,62.5
2017-04-26T06:27:49.049Z,62.4
2017-04-26T06:28:50.854Z,62.4
2017-04-26T06:29:52.995Z,62.3
2017-04-26T06:30:54.794Z,62.3
2017-04-26T06:31:56.590Z,62.3
2017-04-26T06:32:58.498Z,62.4
2017-04-26T06:34:00.450Z,62.3
2017-04-26T06:35:02.540Z,62.3
2017-04-26T06:36:04.474Z,62.4
2017-04-26T06:37:06.445Z,62.4
2017-04-26T06:38:08.707Z,62.4
2017-04-26T06:39:10.683Z,62.5
2017-04-26T06:40:12.815Z,62.5
2017-04-26T06:41:14.616Z,62.4
2017-04-26T06:42:16.415Z,62.2
2017-04-26T06:43:18.544Z,62.2
2017-04-26T06:44:20.697Z,62.3
2017-04-26T06:45:22.494Z,62.3
2017-04-26T06:46:24.294Z,62.5
2017-04-26T06:47:26.087Z,62.4
2017-04-26T06:48:27.891Z,62.5
2017-04-26T06:49:29.685Z,62.5
2017-04-26T06:50:31.490Z,62.4
2017-04-26T06:51:33.289Z,62.3
2017-04-26T06:52:35.090Z,62.4
2017-04-26T06:53:36.893Z,62.3
2017-04-26T06:54:38.690Z,62.3
2017-04-26T06:55:40.527Z,62.2
2017-04-26T06:56:42.322Z,62
2017-04-26T06:57:44.473Z,62
2017-04-26T06:58:46.619Z,61.8
2017-04-26T06:59:48.426Z,61.7
2017-04-26T07:00:50.232Z,61.7
2017-04-26T07:01:52.028Z,61.8
2017-04-26T07:02:53.826Z,61.7
2017-04-26T07:03:55.625Z,61.7
2017-04-26T07:04:57.422Z,61.8
2017-04-26T07:05:59.227Z,61.8
2017-04-26T07:07:01.027Z,61.8
2017-04-26T07:08:02.828Z,61.8
2017-04-26T07:09:04.620Z,61.7
2017-04-26T07:10:06.425Z,61.9
2017-04-26T07:11:08.224Z,61.9
2017-04-26T07:12:10.025Z,61.9
2017-04-26T07:13:11.822Z,61.9
2017-04-26T07:14:13.642Z,62
2017-04-26T07:15:15.443Z,62
2017-04-26T07:16:17.268Z,62.2
2017-04-26T07:17:19.083Z,62.2
2017-04-26T07:18:20.881Z,62.2
2017-04-26T07:19:23.030Z,62
2017-04-26T07:20:24.825Z,61.9
2017-04-26T07:21:26.626Z,61.9
2017-04-26T07:22:28.425Z,62
2017-04-26T07:23:30.229Z,62.1
2017-04-26T07:24:32.030Z,62.3
2017-04-26T07:25:33.838Z,62.1
2017-04-26T07:26:35.635Z,62.2
2017-04-26T07:27:37.433Z,62.2
2017-04-26T07:28:39.229Z,62.3
2017-04-26T07:29:41.030Z,62.3
2017-04-26T07:30:42.848Z,62.2
2017-04-26T07:31:44.981Z,62.2
2017-04-26T07:32:46.786Z,62.1
2017-04-26T07:33:48.923Z,62
2017-04-26T07:34:51.059Z,61
2017-04-26T07:35:52.857Z,60.8
2017-04-26T07:36:54.661Z,60.8
2017-04-26T07:37:56.458Z,60.7
2017-04-26T07:38:58.599Z,60.8
2017-04-26T07:40:00.398Z,60.8
2017-04-26T07:41:02.199Z,60.8
2017-04-26T07:42:03.997Z,60.8
2017-04-26T07:43:06.153Z,60.6
2017-04-26T07:44:07.952Z,60.5
2017-04-26T07:45:09.757Z,60.4
2017-04-26T07:46:11.561Z,60.4
2017-04-26T07:47:13.368Z,60
2017-04-26T07:48:15.170Z,60.1
2017-04-26T07:49:16.972Z,60.2
2017-04-26T07:50:18.790Z,60.2
2017-04-26T07:51:20.932Z,60.1
2017-04-26T07:52:22.735Z,60.1
2017-04-26T07:53:24.540Z,60
2017-04-26T07:54:26.342Z,60
2017-04-26T07:55:28.145Z,60
2017-04-26T07:56:29.947Z,60
2017-04-26T07:57:31.752Z,59.9
2017-04-26T07:58:33.550Z,59.9
2017-04-26T07:59:35.358Z,60
2017-04-26T08:00:37.160Z,60
2017-04-26T08:01:38.962Z,59.8
2017-04-26T08:02:40.765Z,59.9
2017-04-26T08:03:42.562Z,59.9
2017-04-26T08:04:44.366Z,59.8
2017-04-26T08:05:46.176Z,59.8
2017-04-26T08:06:47.976Z,59.9
2017-04-26T08:07:49.784Z,59.7
2017-04-26T08:08:51.585Z,59.6
2017-04-26T08:09:53.388Z,59.7
2017-04-26T08:10:55.187Z,59.7
2017-04-26T08:11:56.989Z,59.7
2017-04-26T08:12:58.793Z,59.6
2017-04-26T08:14:00.596Z,59.7
2017-04-26T08:15:02.409Z,59.7
2017-04-26T08:16:04.549Z,59.7
2017-04-26T08:17:06.355Z,59.6
2017-04-26T08:18:08.157Z,59.6
2017-04-26T08:19:09.986Z,59.8
2017-04-26T08:20:12.120Z,59.8
2017-04-26T08:21:13.928Z,59.6
2017-04-26T08:22:15.729Z,59.6
2017-04-26T08:23:17.532Z,59.5
2017-04-26T08:24:19.334Z,59.4
2017-04-26T08:25:21.133Z,59.3
2017-04-26T08:26:22.935Z,59
2017-04-26T08:27:24.741Z,59
2017-04-26T08:28:26.545Z,59
2017-04-26T08:29:28.350Z,59
2017-04-26T08:30:30.152Z,58.9
2017-04-26T08:31:31.958Z,58.9
2017-04-26T08:32:33.759Z,58.9
2017-04-26T08:33:35.562Z,58.9
2017-04-26T08:34:37.368Z,59.1
2017-04-26T08:35:39.173Z,59.2
2017-04-26T08:36:40.980Z,59.2
2017-04-26T08:37:42.782Z,59.1
2017-04-26T08:38:44.591Z,59.1
2017-04-26T08:39:46.726Z,59.1
2017-04-26T08:40:48.873Z,58.9
2017-04-26T08:41:50.683Z,58.9
2017-04-26T08:42:52.492Z,58.7
2017-04-26T08:43:54.297Z,58.5
2017-04-26T08:44:56.125Z,58.4
2017-04-26T08:45:57.931Z,58.2
2017-04-26T08:46:59.753Z,58.2
2017-04-26T08:48:01.561Z,58.3
2017-04-26T08:49:03.368Z,58.4
2017-04-26T08:50:05.509Z,58.3
2017-04-26T08:51:07.318Z,58.1
2017-04-26T08:52:09.124Z,58
2017-04-26T08:53:10.927Z,57.7
2017-04-26T08:54:12.732Z,57.4
2017-04-26T08:55:14.534Z,57.2
2017-04-26T08:56:16.341Z,57.3
2017-04-26T08:57:18.143Z,57.2
2017-04-26T08:58:20.286Z,57.6
2017-04-26T08:59:22.088Z,57.9
2017-04-26T09:00:23.898Z,58
2017-04-26T09:01:26.034Z,57.6
2017-04-26T09:02:27.844Z,57.4
2017-04-26T09:03:29.647Z,57.3
2017-04-26T09:04:31.457Z,56.8
2017-04-26T09:05:33.264Z,56.9
2017-04-26T09:06:35.074Z,56.9
2017-04-26T09:07:36.878Z,57
2017-04-26T09:08:38.685Z,57.3
2017-04-26T09:09:40.513Z,57.2
2017-04-26T09:10:42.323Z,57.1
2017-04-26T09:11:44.136Z,57.7
2017-04-26T09:12:46.281Z,58.2
2017-04-26T09:13:48.088Z,58.5
2017-04-26T09:14:50.230Z,58.8
2017-04-26T09:15:52.036Z,59.2
2017-04-26T09:16:53.838Z,59.5
2017-04-26T09:17:55.646Z,59.1
2017-04-26T09:18:57.794Z,58.4
2017-04-26T09:19:59.599Z,57.8
2017-04-26T09:21:01.436Z,58
2017-04-26T09:22:03.245Z,58.1
2017-04-26T09:23:05.055Z,58.2
2017-04-26T09:24:06.867Z,58.3
2017-04-26T09:25:08.682Z,58.3
2017-04-26T09:26:10.498Z,58.5
2017-04-26T09:27:12.308Z,58.8
2017-04-26T09:28:14.118Z,59.2
2017-04-26T09:29:15.934Z,59.6
2017-04-26T09:30:17.744Z,59.5
2017-04-26T09:31:19.557Z,59.6
2017-04-26T09:32:21.366Z,59.6
2017-04-26T09:33:23.866Z,59.6
2017-04-26T09:34:25.683Z,58.8
2017-04-26T09:35:27.498Z,57.9
2017-04-26T09:36:29.306Z,56.6
2017-04-26T09:37:31.127Z,55.6
2017-04-26T09:38:32.940Z,55.1
2017-04-26T09:39:34.753Z,55.8
2017-04-26T09:40:36.562Z,56.7
2017-04-26T09:41:38.378Z,57.3
2017-04-26T09:42:40.196Z,57.7
2017-04-26T09:43:42.010Z,58.1
2017-04-26T09:44:43.821Z,58.6
2017-04-26T09:45:45.633Z,58.8
2017-04-26T09:46:47.449Z,58.8
2017-04-26T09:47:49.259Z,58.4
2017-04-26T09:48:51.073Z,58.3
2017-04-26T09:49:52.886Z,58.3
2017-04-26T09:50:54.712Z,58.1
2017-04-26T09:51:56.523Z,58.1
2017-04-26T09:52:58.341Z,57.9
2017-04-26T09:54:00.154Z,57.5
2017-04-26T09:55:01.975Z,56.3
2017-04-26T09:56:03.795Z,55.4
2017-04-26T09:57:05.619Z,54.6
2017-04-26T09:58:07.431Z,54.1
2017-04-26T09:59:09.250Z,53.6
2017-04-26T10:00:11.068Z,53.2
2017-04-26T10:01:12.881Z,53
2017-04-26T10:02:14.690Z,52.8
2017-04-26T10:03:16.527Z,52.7
2017-04-26T10:04:18.347Z,52.5
2017-04-26T10:05:20.159Z,52.2
2017-04-26T10:06:21.982Z,52.5
2017-04-26T10:07:24.125Z,53.4
2017-04-26T10:08:25.946Z,53.5
2017-04-26T10:09:27.762Z,53.5
2017-04-26T10:10:29.929Z,53.5
2017-04-26T10:11:32.078Z,54
2017-04-26T10:12:34.239Z,55.1
2017-04-26T10:13:36.046Z,55.9
2017-04-26T10:15:08.300Z,56.1
2017-04-26T10:16:10.121Z,56.2
2017-04-26T10:17:11.929Z,55.7
2017-04-26T10:18:13.739Z,55.8
2017-04-26T10:19:15.555Z,55.8
2017-04-26T10:20:17.363Z,56.1
2017-04-26T10:21:19.179Z,56.5
2017-04-26T10:22:20.995Z,56.5
2017-04-26T10:23:22.807Z,56.3
2017-04-26T10:24:24.625Z,56.2
2017-04-26T10:25:26.442Z,55.8
2017-04-26T10:26:28.261Z,55.6
2017-04-26T10:27:30.410Z,55.3
2017-04-26T10:28:47.883Z,55.4
2017-04-26T10:29:49.694Z,55
2017-04-26T10:31:03.305Z,55
2017-04-26T10:32:05.122Z,55.1
2017-04-26T10:33:06.944Z,55.2
2017-04-26T10:34:08.762Z,54.8
2017-04-26T10:35:10.579Z,54.6
2017-04-26T10:36:12.478Z,54.3
2017-04-26T10:37:14.559Z,54.4
2017-04-26T10:38:16.378Z,54.4
2017-04-26T10:39:18.195Z,54.2
2017-04-26T10:40:20.008Z,53.9
2017-04-26T10:41:21.824Z,53.6
2017-04-26T10:42:23.636Z,52.8
2017-04-26T10:43:25.458Z,52.3
2017-04-26T10:44:27.274Z,52
2017-04-26T10:45:29.430Z,51.7
2017-04-26T10:46:31.583Z,51.6
2017-04-26T10:47:33.400Z,51.5
2017-04-26T10:48:35.220Z,51.3
2017-04-26T10:49:37.031Z,51.2
2017-04-26T10:50:38.851Z,51.2
2017-04-26T10:51:40.667Z,51
2017-04-26T10:52:42.478Z,50.9
2017-04-26T10:53:44.291Z,50.8
2017-04-26T10:54:46.114Z,50.6
2017-04-26T10:55:47.927Z,50.4
2017-04-26T10:56:49.746Z,50.7
2017-04-26T10:57:51.560Z,50.8
2017-04-26T10:58:53.716Z,50.8
2017-04-26T10:59:55.529Z,50.8
2017-04-26T11:00:57.346Z,50.9
2017-04-26T11:01:59.156Z,51.1
2017-04-26T11:03:00.972Z,51.2
2017-04-26T11:04:02.784Z,51.4
2017-04-26T11:05:04.604Z,51.6
2017-04-26T11:06:06.408Z,51.6
2017-04-26T11:07:08.229Z,51.7
2017-04-26T11:08:10.038Z,51.7
2017-04-26T11:09:11.855Z,51.9
2017-04-26T11:10:13.663Z,51.9
2017-04-26T11:11:15.477Z,51.8
2017-04-26T11:12:17.622Z,51.6
2017-04-26T11:13:19.434Z,51.7
2017-04-26T11:14:21.242Z,51.4
2017-04-26T11:15:23.050Z,51.5
2017-04-26T11:16:24.858Z,51.8
2017-04-26T11:17:26.669Z,51.8
2017-04-26T11:18:28.474Z,51.8
2017-04-26T11:19:30.285Z,51.9
2017-04-26T11:20:32.092Z,52.1
2017-04-26T11:21:33.908Z,52.2
2017-04-26T11:22:35.725Z,52.4
2017-04-26T11:23:37.538Z,52.4
2017-04-26T11:24:39.342Z,52.4
2017-04-26T11:25:41.156Z,52.4
2017-04-26T11:26:42.962Z,52.6
2017-04-26T11:27:44.767Z,52.5
2017-04-26T11:28:46.575Z,52.5
2017-04-26T11:29:48.735Z,52.7
2017-04-26T11:30:50.542Z,52.6
2017-04-26T11:31:52.686Z,52.6
2017-04-26T11:32:54.495Z,52.4
2017-04-26T11:33:56.302Z,52.4
2017-04-26T11:34:58.135Z,52.3
2017-04-26T11:35:59.946Z,52.2
2017-04-26T11:37:02.092Z,52.3
2017-04-26T11:38:03.906Z,52.2
2017-04-26T11:39:05.710Z,52
2017-04-26T11:40:07.521Z,51.7
2017-04-26T11:41:09.332Z,51.7
2017-04-26T11:42:11.152Z,51.7
2017-04-26T11:43:13.304Z,51.6
2017-04-26T11:44:15.108Z,51.6
2017-04-26T11:45:16.917Z,51.5
2017-04-26T11:46:18.729Z,51.7
2017-04-26T11:47:20.534Z,52
2017-04-26T11:48:22.339Z,52
2017-04-26T11:49:24.482Z,52.3
2017-04-26T11:50:26.633Z,52.8
2017-04-26T11:51:28.766Z,53
2017-04-26T11:52:30.577Z,52.9
2017-04-26T11:53:32.382Z,52.9
2017-04-26T11:54:34.189Z,52.7
2017-04-26T11:55:36.006Z,52.8
2017-04-26T11:56:37.810Z,52.3
2017-04-26T11:57:39.613Z,52.6
2017-04-26T11:58:41.423Z,52.8
2017-04-26T11:59:43.570Z,52.7
2017-04-26T12:00:45.716Z,52.6
2017-04-26T12:01:47.520Z,52.7
2017-04-26T12:02:49.670Z,52.9
2017-04-26T12:03:51.479Z,53.2
2017-04-26T12:04:53.304Z,53.6
2017-04-26T12:05:55.115Z,53.8
2017-04-26T12:06:56.918Z,53.7
2017-04-26T12:07:58.728Z,53.4
2017-04-26T12:09:00.534Z,53.4
2017-04-26T12:10:02.687Z,53.1
2017-04-26T12:11:04.498Z,53
2017-04-26T12:12:06.310Z,52.9
2017-04-26T12:13:08.116Z,52.8
2017-04-26T12:14:09.925Z,52.9
2017-04-26T12:15:11.732Z,52.8
2017-04-26T12:16:13.544Z,52.8
2017-04-26T12:17:15.365Z,52.8
2017-04-26T12:18:17.181Z,52.5
2017-04-26T12:19:18.996Z,52.3
2017-04-26T12:20:20.805Z,52
2017-04-26T12:21:22.620Z,51.8
2017-04-26T12:22:24.436Z,51.4
2017-04-26T12:23:26.587Z,50.9
2017-04-26T12:24:28.408Z,50.8
2017-04-26T12:25:30.215Z,50.5
2017-04-26T12:26:32.035Z,50.6
2017-04-26T12:27:33.844Z,50.7
2017-04-26T12:28:35.662Z,50.6
2017-04-26T12:29:37.474Z,50.5
2017-04-26T12:30:39.637Z,50.5
2017-04-26T12:31:41.450Z,50.7
2017-04-26T12:32:43.262Z,50.8
2017-04-26T12:33:45.082Z,50.8
2017-04-26T12:34:46.891Z,50.7
2017-04-26T12:35:49.049Z,50.7
2017-04-26T12:36:50.890Z,50.8
2017-04-26T12:37:52.697Z,50.9
2017-04-26T12:38:55.198Z,51
2017-04-26T12:39:57.004Z,50.9
2017-04-26T12:40:58.821Z,50.8
2017-04-26T12:42:00.637Z,50.5
2017-04-26T12:43:02.449Z,50.5
2017-04-26T12:44:04.266Z,50.5
2017-04-26T12:45:06.083Z,50.2
2017-04-26T12:46:07.894Z,50
2017-04-26T12:47:09.708Z,49.9
2017-04-26T12:48:11.517Z,49.8
2017-04-26T12:49:13.332Z,49.5
2017-04-26T12:50:15.145Z,49.6
2017-04-26T12:51:16.962Z,49.6
2017-04-26T12:52:18.790Z,49.6
2017-04-26T12:53:20.599Z,49.7
2017-04-26T12:54:22.405Z,49.7
2017-04-26T12:55:24.217Z,50
2017-04-26T12:56:26.028Z,50.2
2017-04-26T12:57:27.836Z,50.4
2017-04-26T12:58:29.647Z,50.4
2017-04-26T12:59:31.463Z,50.6
2017-04-26T13:00:33.273Z,50.9
2017-04-26T13:01:35.075Z,51
2017-04-26T13:02:36.885Z,51.2
2017-04-26T13:03:38.694Z,51.1
2017-04-26T13:04:40.503Z,51.1
2017-04-26T13:05:42.315Z,51.2
2017-04-26T13:06:44.121Z,51.8
2017-04-26T13:07:45.924Z,51.5
2017-04-26T13:08:47.729Z,51.9
2017-04-26T13:09:49.544Z,51.9
2017-04-26T13:10:51.687Z,51.7
2017-04-26T13:11:53.831Z,51.9
2017-04-26T13:12:55.635Z,51.6
2017-04-26T13:13:57.441Z,52
2017-04-26T13:14:59.252Z,52.1
2017-04-26T13:16:01.057Z,52
2017-04-26T13:17:02.874Z,52
2017-04-26T13:18:04.685Z,52
2017-04-26T13:19:06.497Z,51.8
2017-04-26T13:20:08.305Z,52
2017-04-26T13:21:10.447Z,52.1
2017-04-26T13:22:12.257Z,52
2017-04-26T13:23:14.068Z,51.8
2017-04-26T13:24:15.875Z,51.4
2017-04-26T13:25:17.684Z,51.4
2017-04-26T13:26:19.834Z,51.3
2017-04-26T13:27:21.642Z,51.3
2017-04-26T13:28:23.793Z,51.4
2017-04-26T13:29:25.933Z,51.2
2017-04-26T13:30:27.744Z,51.3
2017-04-26T13:31:29.558Z,51.3
2017-04-26T13:32:31.372Z,51.2
2017-04-26T13:33:33.180Z,51.2
2017-04-26T13:34:34.988Z,50.8
2017-04-26T13:35:36.796Z,50.3
2017-04-26T13:36:38.608Z,49.8
2017-04-26T13:37:40.420Z,49.4
2017-04-26T13:38:42.233Z,49.5
2017-04-26T13:39:44.046Z,49.6
2017-04-26T13:40:46.198Z,49.7
2017-04-26T13:41:48.042Z,50
2017-04-26T13:42:49.857Z,49.6
2017-04-26T13:43:51.677Z,49.2
2017-04-26T13:44:53.487Z,49.4
2017-04-26T13:45:55.644Z,49.5
2017-04-26T13:46:57.453Z,49.4
2017-04-26T13:47:59.274Z,49.4
2017-04-26T13:49:01.093Z,49.3